Meath Environmental Platform

Observations for Trim Market St

Time AQI Temp °C Hum % Pres Pa CO μg/m³ H₂S μg/m³ NO μg/m³ NO₂ μg/m³ O₃ μg/m³ SO₂ μg/m³ PM1 μg/m³ PM2.5 μg/m³ PM10 μg/m³
Tuesday 14 July 2026
01:53 1 17.4 69 56,386 0.1 0 0 4.03 22.89 0 1.43 3.59 5.63
01:52 1 17.3 69 56,375 0.11 0 0 4.36 22.03 0 0.71 3.11 6.26
01:51 1 17.4 69 56,367 0.1 0 0 3.92 23.44 0 2.14 3.1 6.26
01:50 1 17.4 69 56,353 0.09 0 0 4.22 23.89 0 0.71 2.61 4.37
01:49 1 17.4 69 56,348 0.1 0 0 4.82 21.7 0 2.14 4.56 6.9
01:48 1 17.3 69 56,345 0.12 0 0 3.96 22.35 0 2.14 3.59 5.63
01:47 1 17.4 69 56,350 0.1 0 0 4.93 27.58 0 3.56 4.08 6.26
01:45 1 17.3 69 56,357 0.1 0 0 4.06 23.07 0 1.43 3.11 5
01:44 1 17.3 69 56,362 0.11 0 0 5.87 26.04 0 2.14 3.6 6.26
01:42 1 17.3 69 56,365 0.1 0 0 4.67 24.21 0 2.14 3.6 6.26
01:40 1 17.3 69 56,394 0.1 0 0 4.77 25.04 0 2.14 4.09 6.9
01:30 1 17.3 69 56,398 0.1 0 0.24 5.58 23.45 0 2.14 4.09 6.9
01:29 1 17.3 69 56,405 0.1 0 0 5.48 24.77 0 1.43 2.63 4.36
01:28 1 17.3 69 56,402 0.11 0 0 5.29 24.83 0 2.14 4.1 6.89
01:27 1 17.3 69 56,405 0.09 0 0 4.99 25.45 0 2.85 3.61 7.53
01:26 1 17.3 69 56,401 0.09 0 0 5.59 23.15 0 0.71 3.12 6.26
01:24 1 17.3 68 56,401 0.1 0 0 7.4 28.47 0 0.71 3.12 5.62
01:20 1 17.3 68 56,450 0.1 0 0 6.81 25.54 0 2.14 4.59 6.89
01:19 1 17.3 68 56,467 0.08 0 0 4.21 23.33 0 1.43 3.13 4.98
01:18 1 17.3 68 56,481 0.1 0 0 7.13 26.97 0 2.14 4.11 6.89